Time;durP1;ratioP1;P1;durP2;ratioP2;P2;SDS_P1;SDS_P2;PMS_P1;PMS_P2;Temp;Humidity;BMP_temperature;BMP_pressure;BME280_temperature;BME280_humidity;BME280_pressure;Samples;Min_cycle;Max_cycle;Signal;HPM_P1;HPM_P2
2022/01/16 00:00:15;;;;;;;34.35;8.27;;;;;;;4.59;99.35;101432.28;4957490;28;20033;-77
2022/01/16 00:05:30;;;;;;;40.78;7.38;;;;;;;4.57;99.73;101438.94;4955513;28;20058;-77
2022/01/16 00:07:56;;;;;;;46.83;8.90;;;;;;;4.57;99.81;101438.94;4970420;28;20015;-77
2022/01/16 00:10:23;;;;;;;50.00;9.48;;;;;;;4.57;99.85;101422.72;4959919;28;20023;-79
2022/01/16 00:12:48;;;;;;;47.42;9.68;;;;;;;4.57;99.97;101414.63;4973475;28;20033;-78
2022/01/16 00:15:18;;;;;;;53.38;10.63;;;;;;;4.58;100.00;101413.56;4956528;28;20038;-77
2022/01/16 00:18:07;;;;;;;41.35;7.13;;;;;;;4.58;100.00;101418.97;4971638;28;20043;-79
2022/01/16 00:20:33;;;;;;;47.38;9.05;;;;;;;4.60;100.00;101433.09;4969288;28;20031;-80
2022/01/16 00:22:59;;;;;;;38.85;8.23;;;;;;;4.60;100.00;101427.69;4954985;28;20045;-79
2022/01/16 00:25:24;;;;;;;47.53;8.90;;;;;;;4.61;100.00;101430.19;4971057;28;20546;-79
2022/01/16 00:27:50;;;;;;;37.17;9.02;;;;;;;4.61;100.00;101419.38;4968340;28;20137;-80
2022/01/16 00:30:15;;;;;;;37.85;6.55;;;;;;;4.62;100.00;101407.53;4970279;28;20030;-78
2022/01/16 00:32:41;;;;;;;28.60;6.07;;;;;;;4.61;100.00;101396.94;4953979;28;20070;-79
2022/01/16 00:35:06;;;;;;;41.50;9.95;;;;;;;4.60;100.00;101404.22;4954561;28;20041;-79
2022/01/16 00:37:32;;;;;;;28.98;6.82;;;;;;;4.60;100.00;101385.31;4953053;28;20424;-79
2022/01/16 00:39:57;;;;;;;39.65;7.05;;;;;;;4.60;100.00;101382.59;4952874;28;20038;-79
2022/01/16 00:42:23;;;;;;;23.90;6.88;;;;;;;4.60;100.00;101389.88;4954084;28;20023;-79
2022/01/16 00:44:48;;;;;;;38.45;8.05;;;;;;;4.61;100.00;101386.13;4951223;28;20031;-78
2022/01/16 00:47:13;;;;;;;29.50;5.82;;;;;;;4.60;100.00;101368.28;4954617;28;20356;-78
2022/01/16 00:49:41;;;;;;;34.05;6.43;;;;;;;4.59;100.00;101372.88;4953394;28;20045;-78
2022/01/16 00:52:07;;;;;;;38.58;8.07;;;;;;;4.59;100.00;101380.16;4968950;28;20037;-79
2022/01/16 00:54:32;;;;;;;35.92;9.25;;;;;;;4.59;100.00;101377.44;4959788;28;20132;-79
2022/01/16 00:56:58;;;;;;;36.00;8.18;;;;;;;4.61;100.00;101380.72;4972116;28;20428;-79
2022/01/16 00:59:23;;;;;;;37.40;8.30;;;;;;;4.60;100.00;101384.50;4952972;28;20031;-79
2022/01/16 01:01:48;;;;;;;49.33;10.45;;;;;;;4.60;100.00;101373.69;4955086;28;20041;-78
2022/01/16 01:04:14;;;;;;;45.45;8.93;;;;;;;4.60;100.00;101373.69;4968903;28;20085;-78
2022/01/16 01:06:40;;;;;;;29.42;6.80;;;;;;;4.61;100.00;101376.19;4952361;28;20023;-78
2022/01/16 01:09:05;;;;;;;47.08;8.77;;;;;;;4.63;100.00;101365.13;4971778;28;20093;-78
2022/01/16 01:11:31;;;;;;;38.60;8.25;;;;;;;4.64;100.00;101348.72;4969715;28;20019;-78
2022/01/16 01:16:49;;;;;;;36.42;7.10;;;;;;;4.64;100.00;101331.69;4955091;28;20026;-79
2022/01/16 01:19:15;;;;;;;44.55;9.02;;;;;;;4.63;100.00;101320.03;4955948;28;20027;-79
2022/01/16 01:21:40;;;;;;;51.20;8.40;;;;;;;4.63;100.00;101313.81;4954811;28;20053;-78
2022/01/16 01:24:06;;;;;;;48.65;9.45;;;;;;;4.64;100.00;101312.81;4969945;28;20030;-79
2022/01/16 01:26:37;;;;;;;41.25;8.73;;;;;;;4.62;100.00;101296.81;4965556;28;20146;-80
2022/01/16 01:29:03;;;;;;;48.75;9.13;;;;;;;4.62;100.00;101295.97;4955091;28;20069;-79
2022/01/16 01:31:29;;;;;;;36.08;7.15;;;;;;;4.62;100.00;101298.69;4969787;28;20042;-78
2022/01/16 01:33:55;;;;;;;32.33;7.20;;;;;;;4.62;100.00;101306.78;4970922;28;20030;-79
2022/01/16 01:36:20;;;;;;;38.20;9.00;;;;;;;4.62;100.00;101287.88;4967225;28;20023;-79
2022/01/16 01:38:46;;;;;;;33.53;7.35;;;;;;;4.62;100.00;101318.41;4958296;28;20041;-81
2022/01/16 01:41:11;;;;;;;45.50;8.88;;;;;;;4.62;100.00;101291.41;4966630;28;20558;-77
2022/01/16 01:51:42;;;;;;;50.83;9.30;;;;;;;4.61;100.00;101253.81;4977152;28;20033;-78
2022/01/16 01:54:07;;;;;;;25.48;6.63;;;;;;;4.60;100.00;101257.56;4968188;28;20027;-78
2022/01/16 01:56:33;;;;;;;36.50;8.43;;;;;;;4.58;100.00;101262.34;4976727;28;20053;-79
2022/01/16 01:58:59;;;;;;;33.78;7.80;;;;;;;4.58;100.00;101267.75;4963785;28;20027;-79
2022/01/16 02:01:25;;;;;;;43.75;8.20;;;;;;;4.57;100.00;101258.00;4983851;28;20443;-79
2022/01/16 02:03:51;;;;;;;35.17;7.68;;;;;;;4.56;100.00;101265.28;4961865;28;20033;-79
2022/01/16 02:06:27;;;;;;;36.78;8.48;;;;;;;4.56;100.00;101270.69;4974522;28;20026;-79
2022/01/16 02:08:54;;;;;;;39.17;8.05;;;;;;;4.56;100.00;101264.47;4973209;28;20027;-79
2022/01/16 02:11:22;;;;;;;48.30;7.20;;;;;;;4.55;100.00;101243.91;4965209;28;20019;-78
2022/01/16 02:13:57;;;;;;;42.60;9.43;;;;;;;4.53;100.00;101243.28;4977870;28;20425;-80
2022/01/16 02:28:14;;;;;;;22.92;5.45;;;;;;;4.50;100.00;101112.28;4975033;28;20453;-79
2022/01/16 02:31:01;;;;;;;19.05;5.78;;;;;;;4.49;100.00;101178.13;4964643;28;20040;-78
2022/01/16 02:36:12;;;;;;;23.65;6.00;;;;;;;4.49;100.00;101167.31;4948914;28;20030;-78
2022/01/16 02:38:38;;;;;;;29.38;6.40;;;;;;;4.49;100.00;101166.50;4960308;28;20747;-78
2022/01/16 02:41:05;;;;;;;19.25;5.47;;;;;;;4.48;100.00;101176.47;4977507;28;20034;-78
2022/01/16 02:43:34;;;;;;;20.48;6.20;;;;;;;4.48;100.00;101160.28;4978166;28;20392;-78
2022/01/16 02:46:46;;;;;;;28.48;8.30;;;;;;;4.47;100.00;101137.00;4972559;28;20068;-79
2022/01/16 02:48:49;;;;;;;23.13;6.18;;;;;;;4.47;100.00;101147.00;4973051;28;20038;-78
2022/01/16 02:51:18;;;;;;;18.52;5.18;;;;;;;4.47;100.00;101136.19;4961530;28;20101;-79
2022/01/16 02:53:45;;;;;;;25.58;8.57;;;;;;;4.45;100.00;101156.16;4961056;28;20031;-79
2022/01/16 02:56:11;;;;;;;28.88;7.20;;;;;;;4.48;100.00;101164.84;4956690;28;20496;-79
2022/01/16 02:58:36;;;;;;;18.73;6.05;;;;;;;4.45;100.00;101169.66;4942645;28;20416;-78
2022/01/16 03:01:02;;;;;;;22.02;5.45;;;;;;;4.45;100.00;101156.16;4974875;28;20089;-78
2022/01/16 03:03:27;;;;;;;22.85;5.85;;;;;;;4.46;100.00;101162.38;4975565;28;20022;-77
2022/01/16 03:05:52;;;;;;;22.27;5.43;;;;;;;4.45;100.00;101166.94;4972808;28;20376;-79
2022/01/16 03:08:18;;;;;;;19.08;5.65;;;;;;;4.45;100.00;101164.25;4974671;28;20469;-79
2022/01/16 03:13:31;;;;;;;20.40;6.20;;;;;;;4.44;100.00;101151.78;4954103;28;20088;-79
2022/01/16 03:15:57;;;;;;;18.52;4.93;;;;;;;4.44;100.00;101154.47;4974495;28;20384;-79
2022/01/16 03:23:31;;;;;;;22.25;5.57;;;;;;;4.45;100.00;101166.94;4961596;28;20093;-78
2022/01/16 03:25:57;;;;;;;17.42;4.85;;;;;;;4.45;100.00;101145.34;4955830;28;20472;-79
2022/01/16 03:28:22;;;;;;;12.43;3.70;;;;;;;4.44;100.00;101154.47;4974321;28;20127;-78
2022/01/16 03:30:48;;;;;;;31.85;6.25;;;;;;;4.45;100.00;101142.66;4954174;28;20045;-79
2022/01/16 03:33:13;;;;;;;23.40;7.15;;;;;;;4.45;100.00;101139.94;4954663;28;20042;-79
2022/01/16 03:35:39;;;;;;;24.23;6.28;;;;;;;4.45;100.00;101123.75;4952746;28;20035;-79
2022/01/16 03:38:05;;;;;;;20.90;6.22;;;;;;;4.46;100.00;101113.78;4960032;28;20427;-79
2022/01/16 03:40:30;;;;;;;19.85;6.15;;;;;;;4.45;100.00;101099.47;4959273;28;20105;-78
2022/01/16 03:43:03;;;;;;;18.92;5.55;;;;;;;4.47;100.00;101090.28;4955513;28;20039;-79
2022/01/16 03:45:29;;;;;;;17.45;5.30;;;;;;;4.47;100.00;101085.72;4972879;28;20034;-79
2022/01/16 03:47:55;;;;;;;16.02;5.00;;;;;;;4.47;100.00;101090.28;4974111;28;20037;-78
2022/01/16 03:50:20;;;;;;;28.42;6.75;;;;;;;4.49;100.00;101082.81;4973366;28;20023;-78
2022/01/16 03:52:46;;;;;;;22.70;6.65;;;;;;;4.49;100.00;101085.50;4974355;28;20056;-79
2022/01/16 03:55:11;;;;;;;13.95;4.28;;;;;;;4.50;100.00;101081.75;4971823;28;20088;-78
2022/01/16 03:57:36;;;;;;;19.67;5.25;;;;;;;4.51;100.00;101078.00;4974841;28;20027;-78
2022/01/16 04:00:06;;;;;;;22.83;5.53;;;;;;;4.51;100.00;101068.03;4956774;28;20034;-78
2022/01/16 04:02:32;;;;;;;20.98;5.80;;;;;;;4.52;100.00;101063.44;4957239;28;20034;-78
2022/01/16 04:04:57;;;;;;;22.98;6.63;;;;;;;4.52;100.00;101055.34;4970768;28;20088;-79
2022/01/16 04:07:28;;;;;;;13.40;4.97;;;;;;;4.51;100.00;101041.03;4971036;28;20145;-78
2022/01/16 04:09:53;;;;;;;30.77;5.38;;;;;;;4.51;100.00;101040.22;4959884;28;20417;-78
2022/01/16 04:12:22;;;;;;;28.02;7.35;;;;;;;4.52;100.00;101036.44;4956454;28;20023;-78
2022/01/16 04:17:17;;;;;;;18.45;5.35;;;;;;;4.53;100.00;101032.69;4974691;28;20023;-78
2022/01/16 04:19:43;;;;;;;22.33;6.05;;;;;;;4.51;100.00;101019.44;4972195;28;20030;-79
2022/01/16 04:22:08;;;;;;;17.15;5.35;;;;;;;4.52;100.00;101022.94;4972742;28;20030;-78
2022/01/16 04:24:34;;;;;;;21.55;6.32;;;;;;;4.52;100.00;101014.84;4955113;28;20041;-79
2022/01/16 04:27:00;;;;;;;20.85;4.95;;;;;;;4.53;100.00;101011.09;4972237;28;20027;-78
2022/01/16 04:29:25;;;;;;;19.70;5.10;;;;;;;4.54;100.00;101004.66;4956798;28;20473;-78
2022/01/16 04:31:50;;;;;;;20.30;6.65;;;;;;;4.55;100.00;101009.00;4955940;28;20027;-78
2022/01/16 04:34:16;;;;;;;20.38;5.57;;;;;;;4.55;100.00;101014.38;4973655;28;20042;-80
2022/01/16 04:36:42;;;;;;;25.70;5.40;;;;;;;4.54;100.00;100996.56;4954334;28;20034;-80
2022/01/16 04:39:12;;;;;;;22.40;6.05;;;;;;;4.55;100.00;100992.78;4948529;28;20023;-79
2022/01/16 04:44:22;;;;;;;27.33;6.22;;;;;;;4.55;100.00;100982.81;4970116;28;20452;-78
2022/01/16 04:46:47;;;;;;;19.08;6.30;;;;;;;4.55;100.00;100977.41;4988818;28;20026;-79
2022/01/16 04:49:13;;;;;;;21.73;7.82;;;;;;;4.56;100.00;100972.84;4973786;28;20046;-78
2022/01/16 04:51:38;;;;;;;15.43;5.55;;;;;;;4.56;100.00;100984.47;4955522;28;20073;-79
2022/01/16 04:54:04;;;;;;;22.50;6.05;;;;;;;4.56;100.00;100972.84;4961747;28;20100;-79
2022/01/16 04:56:29;;;;;;;23.85;8.48;;;;;;;4.56;100.00;100968.28;4975099;28;20057;-77
2022/01/16 04:58:54;;;;;;;23.83;6.78;;;;;;;4.57;100.00;100979.91;4956696;28;20027;-79
2022/01/16 05:01:20;;;;;;;21.58;5.88;;;;;;;4.58;100.00;100970.72;4973061;28;20523;-79
2022/01/16 05:03:45;;;;;;;20.05;5.10;;;;;;;4.58;100.00;100968.03;4956322;28;20031;-78
2022/01/16 05:06:11;;;;;;;25.30;6.20;;;;;;;4.57;100.00;100958.28;4972242;28;20073;-78
2022/01/16 05:08:36;;;;;;;19.88;6.10;;;;;;;4.56;100.00;100953.97;4956043;28;20056;-78
2022/01/16 05:11:02;;;;;;;17.98;5.78;;;;;;;4.55;100.00;100949.59;4954644;28;20056;-78
2022/01/16 05:16:34;;;;;;;26.08;6.65;;;;;;;4.53;100.00;100949.00;4971628;28;20026;-80
2022/01/16 05:18:58;;;;;;;20.75;7.80;;;;;;;4.52;100.00;100933.84;4957611;28;20080;-77
2022/01/16 05:21:23;;;;;;;19.33;6.25;;;;;;;4.52;100.00;100917.66;4972759;28;20031;-78
2022/01/16 05:23:48;;;;;;;20.50;7.25;;;;;;;4.52;100.00;100934.66;4971146;28;20027;-78
2022/01/16 05:26:15;;;;;;;25.08;6.50;;;;;;;4.52;100.00;100909.56;4971296;28;20026;-79
2022/01/16 05:28:40;;;;;;;32.10;7.65;;;;;;;4.52;100.00;100912.25;4954103;28;20373;-78
2022/01/16 05:31:05;;;;;;;23.77;6.38;;;;;;;4.50;100.00;100914.34;4953212;28;20527;-77
2022/01/16 05:33:31;;;;;;;33.17;8.52;;;;;;;4.51;100.00;100911.44;4967579;28;20038;-78
2022/01/16 05:35:56;;;;;;;21.17;6.40;;;;;;;4.52;100.00;100890.66;4971354;28;20464;-79
2022/01/16 05:38:22;;;;;;;21.42;6.95;;;;;;;4.52;100.00;100918.47;4955101;28;20361;-78
2022/01/16 05:40:47;;;;;;;17.08;5.78;;;;;;;4.52;100.00;100896.88;4972636;28;20380;-79
2022/01/16 05:43:13;;;;;;;29.88;6.85;;;;;;;4.52;100.00;100890.66;4966693;28;20023;-78
2022/01/16 05:45:38;;;;;;;19.60;5.90;;;;;;;4.50;100.00;100888.22;4956054;28;20027;-78
2022/01/16 05:48:03;;;;;;;23.13;5.03;;;;;;;4.49;100.00;100891.13;4980492;28;20030;-78
2022/01/16 05:50:31;;;;;;;24.83;5.60;;;;;;;4.48;100.00;100874.09;4960823;28;20109;-78
2022/01/16 05:52:59;;;;;;;23.67;6.68;;;;;;;4.47;100.00;100871.63;4938499;28;20023;-77
2022/01/16 05:55:29;;;;;;;27.35;5.65;;;;;;;4.44;100.00;100852.13;4960098;28;20038;-77
2022/01/16 05:57:54;;;;;;;18.75;6.43;;;;;;;4.44;100.00;100859.41;4967260;28;20035;-77
2022/01/16 06:00:19;;;;;;;21.65;5.63;;;;;;;4.41;100.00;100857.19;4955339;28;20451;-77
2022/01/16 06:02:45;;;;;;;31.65;7.57;;;;;;;4.39;100.00;100838.53;4969555;28;20035;-78
2022/01/16 06:05:12;;;;;;;23.65;6.25;;;;;;;4.39;100.00;100837.69;4971244;28;20061;-78
2022/01/16 06:07:38;;;;;;;18.90;5.03;;;;;;;4.38;100.00;100838.75;4952131;28;20151;-77
2022/01/16 06:10:04;;;;;;;23.27;6.63;;;;;;;4.37;100.00;100827.13;4972373;28;20026;-76
2022/01/16 06:12:29;;;;;;;19.13;5.68;;;;;;;4.37;100.00;100827.13;4971512;28;20018;-76
2022/01/16 06:14:55;;;;;;;26.02;6.03;;;;;;;4.38;100.00;100822.56;4967492;28;20039;-76
2022/01/16 06:17:20;;;;;;;24.20;4.95;;;;;;;4.38;100.00;100820.66;4969372;28;20041;-77
2022/01/16 06:19:46;;;;;;;24.52;6.00;;;;;;;4.38;100.00;100826.06;4961184;28;20031;-76
2022/01/16 06:22:11;;;;;;;21.75;6.55;;;;;;;4.40;100.00;100833.94;4958640;28;20035;-77
2022/01/16 06:24:36;;;;;;;22.35;6.10;;;;;;;4.39;100.00;100827.75;4976722;28;20023;-77
2022/01/16 06:27:02;;;;;;;27.58;6.13;;;;;;;4.39;100.00;100830.44;4969374;28;20026;-77
2022/01/16 06:29:27;;;;;;;23.23;5.30;;;;;;;4.40;100.00;100813.19;4957199;28;20507;-77
2022/01/16 06:31:52;;;;;;;18.05;5.82;;;;;;;4.41;100.00;100814.81;4975160;28;20387;-77
2022/01/16 06:34:18;;;;;;;21.65;6.25;;;;;;;4.40;100.00;100802.38;4982233;28;20026;-77
2022/01/16 06:36:43;;;;;;;23.88;5.95;;;;;;;4.41;100.00;100801.31;4956328;28;20043;-78
2022/01/16 06:39:10;;;;;;;25.30;5.80;;;;;;;4.42;100.00;100789.47;4955285;28;20031;-76
2022/01/16 06:41:35;;;;;;;20.75;5.95;;;;;;;4.43;100.00;100791.09;4972867;28;20034;-76
2022/01/16 06:44:01;;;;;;;26.23;6.47;;;;;;;4.42;100.00;100805.69;4974730;28;20045;-76
2022/01/16 06:46:26;;;;;;;33.40;8.25;;;;;;;4.41;100.00;100793.22;4963581;28;20046;-75
2022/01/16 06:48:52;;;;;;;23.52;5.22;;;;;;;4.41;100.00;100789.69;4982904;28;20866;-78
2022/01/16 06:51:19;;;;;;;17.85;5.85;;;;;;;4.40;100.00;100785.38;4942947;28;20035;-76
2022/01/16 06:53:46;;;;;;;25.90;5.63;;;;;;;4.40;100.00;100777.28;4956120;28;20097;-76
2022/01/16 06:56:11;;;;;;;13.25;5.18;;;;;;;4.40;100.00;100779.97;4953027;28;20480;-76
2022/01/16 06:58:37;;;;;;;17.70;5.93;;;;;;;4.39;100.00;100800.75;4974122;28;20035;-77
2022/01/16 07:01:02;;;;;;;17.70;5.38;;;;;;;4.39;100.00;100791.81;4975722;28;20034;-76
2022/01/16 07:03:27;;;;;;;33.83;7.60;;;;;;;4.39;100.00;100776.44;4957795;28;20031;-75
2022/01/16 07:05:54;;;;;;;29.25;7.90;;;;;;;4.39;100.00;100783.69;4974041;28;20026;-76
2022/01/16 07:08:22;;;;;;;24.10;7.00;;;;;;;4.38;100.00;100784.78;4958500;28;20026;-76
2022/01/16 07:10:49;;;;;;;22.88;7.85;;;;;;;4.37;100.00;100769.66;4941825;28;20373;-76
2022/01/16 07:13:14;;;;;;;36.70;8.02;;;;;;;4.38;100.00;100772.09;4956072;28;20022;-77
2022/01/16 07:15:39;;;;;;;26.80;8.07;;;;;;;4.40;100.00;100763.78;4975155;28;20428;-75
2022/01/16 07:18:05;;;;;;;26.48;9.40;;;;;;;4.41;100.00;100776.19;4969461;28;20031;-76
2022/01/16 07:20:31;;;;;;;29.95;8.50;;;;;;;4.41;100.00;100766.22;4971189;28;20093;-77
2022/01/16 07:22:56;;;;;;;31.02;8.25;;;;;;;4.40;100.00;100764.59;4972346;28;20031;-76
2022/01/16 07:25:21;;;;;;;34.97;9.35;;;;;;;4.41;100.00;100758.13;4974445;28;20034;-77
2022/01/16 07:27:47;;;;;;;26.63;7.82;;;;;;;4.41;100.00;100766.22;4954490;28;20084;-76
2022/01/16 07:30:13;;;;;;;26.83;7.68;;;;;;;4.43;100.00;100779.50;4956777;28;20019;-77
2022/01/16 07:32:39;;;;;;;28.35;8.70;;;;;;;4.42;100.00;100772.47;4955137;28;20033;-76
2022/01/16 07:35:05;;;;;;;37.13;10.73;;;;;;;4.44;100.00;100773.84;4972597;28;20031;-77
2022/01/16 07:37:30;;;;;;;31.35;8.35;;;;;;;4.46;100.00;100768.22;4953148;28;20055;-77
2022/01/16 07:39:56;;;;;;;32.97;9.57;;;;;;;4.48;100.00;100776.09;4967900;28;20038;-76
2022/01/16 07:42:21;;;;;;;21.05;6.90;;;;;;;4.51;100.00;100770.25;4954721;28;20026;-76
2022/01/16 07:44:47;;;;;;;44.75;12.32;;;;;;;4.53;100.00;100765.41;4972090;28;20038;-76
2022/01/16 07:47:12;;;;;;;33.13;9.63;;;;;;;4.56;100.00;100775.75;4971526;28;20039;-76
2022/01/16 07:49:37;;;;;;;30.60;9.75;;;;;;;4.57;100.00;100764.72;4957106;28;20055;-77
2022/01/16 07:52:03;;;;;;;35.78;10.68;;;;;;;4.58;100.00;100752.03;4971687;28;20048;-76
2022/01/16 07:54:28;;;;;;;34.72;11.82;;;;;;;4.61;100.00;100748.84;4956579;28;20114;-78
2022/01/16 07:56:54;;;;;;;41.78;13.32;;;;;;;4.61;100.00;100748.84;4970194;28;20049;-76
2022/01/16 07:59:19;;;;;;;38.85;12.65;;;;;;;4.62;100.00;100724.34;4964813;28;20027;-76
2022/01/16 08:01:44;;;;;;;37.53;13.32;;;;;;;4.63;100.00;100733.25;4953405;28;20031;-76
2022/01/16 08:04:10;;;;;;;33.75;12.32;;;;;;;4.66;100.00;100735.47;4955778;28;20027;-77
2022/01/16 08:06:35;;;;;;;39.28;11.75;;;;;;;4.67;100.00;100747.94;4955712;28;20424;-77
2022/01/16 08:09:01;;;;;;;38.97;12.38;;;;;;;4.68;100.00;100749.56;4955115;28;20046;-76
2022/01/16 08:11:26;;;;;;;36.03;11.63;;;;;;;4.71;100.00;100737.47;4970695;28;20487;-76
2022/01/16 08:13:51;;;;;;;33.50;11.00;;;;;;;4.71;100.00;100732.88;4978849;28;20034;-78
2022/01/16 08:16:17;;;;;;;37.95;13.68;;;;;;;4.73;100.00;100728.09;4971493;28;20027;-76
2022/01/16 08:18:42;;;;;;;51.83;15.98;;;;;;;4.75;100.00;100733.25;4970569;28;20031;-76
2022/01/16 08:21:07;;;;;;;48.75;15.50;;;;;;;4.76;100.00;100724.91;4972787;28;20026;-77
2022/01/16 08:23:33;;;;;;;47.85;15.15;;;;;;;4.78;100.00;100732.78;4974264;28;20220;-76
2022/01/16 08:25:58;;;;;;;44.30;13.57;;;;;;;4.79;100.00;100702.81;4969277;28;20085;-77
2022/01/16 08:28:24;;;;;;;42.67;14.50;;;;;;;4.80;100.00;100699.09;4970203;28;20066;-76
2022/01/16 08:30:49;;;;;;;52.60;15.60;;;;;;;4.80;100.00;100693.69;4967329;28;20039;-78
2022/01/16 08:33:14;;;;;;;60.35;17.48;;;;;;;4.81;100.00;100695.31;4951645;28;20047;-77
2022/01/16 08:35:40;;;;;;;60.88;20.20;;;;;;;4.82;100.00;100691.53;4969353;28;20038;-77
2022/01/16 08:38:05;;;;;;;39.63;14.20;;;;;;;4.83;100.00;100677.00;4951803;28;20026;-77
2022/01/16 08:40:31;;;;;;;56.45;19.40;;;;;;;4.85;100.00;100687.53;4967069;28;20030;-76
2022/01/16 08:42:56;;;;;;;62.58;20.02;;;;;;;4.86;100.00;100687.31;4964875;28;20452;-75
2022/01/16 08:45:21;;;;;;;51.80;18.20;;;;;;;4.87;100.00;100683.53;4958012;28;20028;-79
2022/01/16 08:47:47;;;;;;;49.83;15.52;;;;;;;4.90;100.00;100679.53;4958561;28;20476;-77
2022/01/16 08:50:12;;;;;;;59.20;19.50;;;;;;;4.91;100.00;100686.63;4968872;28;20057;-78
2022/01/16 08:52:39;;;;;;;66.65;18.55;;;;;;;4.93;100.00;100689.06;4968247;28;20019;-78
2022/01/16 08:55:05;;;;;;;66.75;20.35;;;;;;;4.96;100.00;100688.56;4968302;28;20510;-75
2022/01/16 08:57:31;;;;;;;48.70;18.08;;;;;;;4.97;100.00;100698.34;4970527;28;20109;-76
2022/01/16 08:59:56;;;;;;;65.93;18.10;;;;;;;4.99;100.00;100683.53;4970503;28;20637;-76
2022/01/16 09:02:21;;;;;;;56.92;15.52;;;;;;;4.99;100.00;100674.59;4969622;28;20027;-76
2022/01/16 09:04:47;;;;;;;54.13;15.45;;;;;;;5.01;100.00;100658.97;4954477;28;20477;-77
2022/01/16 09:07:13;;;;;;;56.22;17.55;;;;;;;5.00;100.00;100654.63;4969095;28;20031;-79
2022/01/16 09:09:38;;;;;;;64.28;19.65;;;;;;;5.00;100.00;100657.34;4972963;28;20030;-77
2022/01/16 09:12:04;;;;;;;48.15;15.43;;;;;;;5.01;100.00;100635.47;4962112;28;20023;-77
2022/01/16 09:14:30;;;;;;;36.72;12.70;;;;;;;5.03;100.00;100660.38;4960893;28;20034;-77
2022/01/16 09:16:55;;;;;;;49.40;15.18;;;;;;;5.04;100.00;100637.69;4973774;28;20472;-77
2022/01/16 09:19:20;;;;;;;55.55;16.95;;;;;;;5.05;100.00;100636.63;4969050;28;20033;-78
2022/01/16 09:21:46;;;;;;;58.35;17.20;;;;;;;5.06;100.00;100629.34;4971330;28;20035;-77
2022/01/16 09:24:11;;;;;;;53.38;16.73;;;;;;;5.07;100.00;100633.69;4979078;28;20030;-78
2022/01/16 09:26:37;;;;;;;49.33;15.98;;;;;;;5.07;100.00;100620.16;4970838;28;20522;-78
2022/01/16 09:29:03;;;;;;;43.08;15.25;;;;;;;5.07;100.00;100623.72;4969667;28;20392;-77
2022/01/16 09:31:28;;;;;;;48.50;13.80;;;;;;;5.10;100.00;100625.09;4970276;28;20026;-80
2022/01/16 09:33:54;;;;;;;58.50;17.23;;;;;;;5.10;100.00;100614.28;4956862;28;20155;-80
2022/01/16 09:36:19;;;;;;;61.00;18.38;;;;;;;5.08;100.00;100617.25;4953621;28;20034;-79
2022/01/16 09:38:45;;;;;;;45.20;14.73;;;;;;;5.08;100.00;100624.53;4947736;28;20369;-81
2022/01/16 09:41:10;;;;;;;36.80;13.02;;;;;;;5.06;100.00;100615.84;4965107;28;20053;-80
2022/01/16 09:43:35;;;;;;;36.72;13.82;;;;;;;5.07;100.00;100626.41;4948902;28;20441;-80
2022/01/16 09:46:01;;;;;;;37.03;13.07;;;;;;;5.07;100.00;100607.50;4951459;28;20313;-78
2022/01/16 09:48:27;;;;;;;46.92;15.30;;;;;;;5.05;100.00;100606.91;4932281;28;20046;-79
2022/01/16 09:50:52;;;;;;;30.38;9.80;;;;;;;5.06;100.00;100613.94;4969499;28;20030;-78
2022/01/16 09:53:17;;;;;;;43.80;14.05;;;;;;;5.09;100.00;100607.25;4948039;28;20372;-78
2022/01/16 09:55:43;;;;;;;39.58;13.10;;;;;;;5.11;100.00;100602.44;4949908;28;20034;-80
2022/01/16 09:58:08;;;;;;;38.70;12.52;;;;;;;5.15;100.00;100610.84;4933885;28;20371;-78
2022/01/16 10:00:34;;;;;;;31.63;9.85;;;;;;;5.15;100.00;100614.38;4963626;28;20039;-80
2022/01/16 10:02:59;;;;;;;31.52;9.90;;;;;;;5.17;100.00;100595.22;4949904;28;20112;-78
2022/01/16 10:05:25;;;;;;;30.98;13.70;;;;;;;5.18;100.00;100608.47;4968849;28;20031;-75
2022/01/16 10:07:50;;;;;;;28.70;10.52;;;;;;;5.19;100.00;100615.53;4971987;28;20081;-77
2022/01/16 10:10:16;;;;;;;26.85;11.02;;;;;;;5.21;100.00;100602.63;4972493;28;20043;-77
2022/01/16 10:12:48;;;;;;;37.75;14.13;;;;;;;5.21;100.00;100602.63;4952977;28;20026;-76
2022/01/16 10:15:20;;;;;;;;;;;;;;;5.25;100.00;100613.75;4954497;28;20093;-76
2022/01/16 10:17:51;;;;;;;32.35;12.77;;;;;;;5.23;100.00;100611.28;4973226;28;20455;-78
2022/01/16 10:20:17;;;;;;;31.23;11.18;;;;;;;5.23;100.00;100616.69;4950799;28;20083;-77
2022/01/16 10:22:44;;;;;;;31.30;11.63;;;;;;;5.24;100.00;100628.34;4971459;28;20058;-76
2022/01/16 10:25:10;;;;;;;34.35;13.38;;;;;;;5.25;100.00;100613.75;4970962;28;20118;-76
2022/01/16 10:27:37;;;;;;;37.97;11.30;;;;;;;5.26;100.00;100627.00;4956410;28;20121;-76
2022/01/16 10:30:07;;;;;;;29.45;12.35;;;;;;;5.28;100.00;100624.88;4955683;28;20030;-78
2022/01/16 10:32:33;;;;;;;32.08;13.00;;;;;;;5.29;100.00;100609.50;4972410;28;20019;-77
2022/01/16 10:35:20;;;;;;;41.75;13.20;;;;;;;5.28;100.00;100602.47;4952250;28;20459;-76
2022/01/16 10:37:47;;;;;;;29.60;11.43;;;;;;;5.27;100.00;100609.75;4968958;28;20050;-75
2022/01/16 10:40:17;;;;;;;37.97;11.98;;;;;;;5.27;100.00;100601.63;4972253;28;20033;-77
2022/01/16 10:42:48;;;;;;;37.10;13.13;;;;;;;5.28;100.00;100600.56;4970197;28;20027;-76
2022/01/16 10:45:14;;;;;;;36.97;12.88;;;;;;;5.30;100.00;100598.44;4955220;28;20761;-76
2022/01/16 10:47:42;;;;;;;29.70;9.57;;;;;;;5.30;100.00;100605.75;4956887;28;20536;-75
2022/01/16 10:50:29;;;;;;;26.90;11.73;;;;;;;5.27;100.00;100584.59;4972644;28;20051;-77
2022/01/16 10:52:58;;;;;;;33.35;12.07;;;;;;;5.26;100.00;100578.34;4972694;28;20055;-76
2022/01/16 10:55:40;;;;;;;42.25;13.32;;;;;;;5.28;100.00;100565.44;4952383;28;20475;-77
2022/01/16 10:58:14;;;;;;;37.47;11.43;;;;;;;5.34;100.00;100542.00;4972194;28;20053;-77
2022/01/16 11:00:44;;;;;;;35.63;14.18;;;;;;;5.44;100.00;100541.38;4970436;28;20034;-78
2022/01/16 11:03:11;;;;;;;31.13;11.85;;;;;;;5.50;100.00;100545.78;4951608;28;22379;-77
2022/01/16 11:05:43;;;;;;;36.55;12.02;;;;;;;5.48;100.00;100539.78;4964002;28;20031;-76
2022/01/16 11:08:13;;;;;;;41.50;12.27;;;;;;;5.43;100.00;100523.50;4967860;28;20507;-76
2022/01/16 11:10:38;;;;;;;44.97;14.48;;;;;;;5.39;100.00;100506.13;4936203;28;20023;-77
2022/01/16 11:13:06;;;;;;;25.98;10.15;;;;;;;5.35;100.00;100500.41;4972561;28;20026;-78
2022/01/16 11:15:32;;;;;;;30.60;11.50;;;;;;;5.30;100.00;100495.72;4935654;28;20110;-77
2022/01/16 11:17:58;;;;;;;44.63;12.88;;;;;;;5.32;100.00;100499.03;4972669;28;20121;-77
2022/01/16 11:20:28;;;;;;;28.50;10.18;;;;;;;5.37;100.00;100486.63;4955197;28;20046;-76
2022/01/16 11:23:02;;;;;;;34.15;9.55;;;;;;;5.46;100.00;100493.28;4955346;28;20030;-78
2022/01/16 11:25:33;;;;;;;25.25;8.77;;;;;;;5.56;100.00;100483.44;4953756;28;20537;-77
2022/01/16 11:28:03;;;;;;;28.25;9.13;;;;;;;5.61;100.00;100482.69;4954809;28;20143;-76
2022/01/16 11:30:30;;;;;;;22.70;7.15;;;;;;;5.67;100.00;100478.97;4939542;28;20026;-77
2022/01/16 11:32:57;;;;;;;22.23;7.05;;;;;;;5.72;100.00;100503.38;4937971;28;20030;-76
2022/01/16 11:35:22;;;;;;;23.48;8.93;;;;;;;5.72;100.00;100479.06;4971399;28;20026;-77
2022/01/16 11:37:48;;;;;;;20.63;6.43;;;;;;;5.71;100.00;100477.41;4955887;28;20037;-77
2022/01/16 11:40:27;;;;;;;18.52;6.28;;;;;;;5.69;100.00;100479.56;4951895;28;20035;-77
2022/01/16 11:43:11;;;;;;;22.48;3.40;;;;;;;5.75;100.00;100469.63;4941933;28;20061;-76
2022/01/16 11:46:03;;;;;;;19.02;4.68;;;;;;;5.84;100.00;100464.59;4971608;28;20030;-76
2022/01/16 11:48:36;;;;;;;13.85;4.32;;;;;;;5.89;100.00;100489.00;4952674;28;20051;-76
2022/01/16 11:51:03;;;;;;;12.05;3.03;;;;;;;5.97;100.00;100469.66;4963531;28;20030;-75
2022/01/16 11:54:02;;;;;;;20.35;5.00;;;;;;;6.07;100.00;100456.28;4954474;28;20031;-76
2022/01/16 11:56:39;;;;;;;13.05;3.60;;;;;;;6.15;100.00;100469.38;4952252;28;20569;-76